Time;durP1;ratioP1;P1;durP2;ratioP2;P2;SDS_P1;SDS_P2;PMS_P1;PMS_P2;Temp;Humidity;BMP_temperature;BMP_pressure;BME280_temperature;BME280_humidity;BME280_pressure;Samples;Min_cycle;Max_cycle;Signal;HPM_P1;HPM_P2
2022/06/24 00:01:38;;;;;;;17.33;5.97;;;;;;;;;;5046594;28;20393;-68
2022/06/24 00:04:04;;;;;;;15.90;6.30;;;;;;;;;;5035815;28;20025;-69
2022/06/24 00:06:40;;;;;;;11.10;4.75;;;;;;;;;;5047214;28;20013;-69
2022/06/24 00:09:05;;;;;;;6.43;3.63;;;;;;;;;;5051381;28;20096;-69
2022/06/24 00:11:30;;;;;;;8.65;3.25;;;;;;;;;;5045986;28;20108;-68
2022/06/24 00:14:06;;;;;;;26.60;5.70;;;;;;;;;;5036487;28;20017;-68
2022/06/24 00:16:31;;;;;;;25.33;9.52;;;;;;;;;;5044131;28;20396;-68
2022/06/24 00:19:11;;;;;;;25.92;8.68;;;;;;;;;;5045410;28;20017;-68
2022/06/24 00:21:37;;;;;;;27.10;7.80;;;;;;;;;;5048234;28;20362;-68
2022/06/24 00:24:02;;;;;;;21.65;7.43;;;;;;;;;;5049212;28;20027;-69
2022/06/24 00:26:37;;;;;;;17.48;7.35;;;;;;;;;;5034540;28;20036;-69
2022/06/24 00:29:03;;;;;;;28.55;7.40;;;;;;;;;;5045301;28;20060;-68
2022/06/24 00:31:28;;;;;;;15.80;6.10;;;;;;;;;;5043345;28;20491;-68
2022/06/24 00:33:53;;;;;;;20.07;7.30;;;;;;;;;;5047064;28;20391;-68
2022/06/24 00:36:19;;;;;;;18.07;6.07;;;;;;;;;;5049539;28;20025;-68
2022/06/24 00:38:50;;;;;;;14.10;5.65;;;;;;;;;;5046850;28;20266;-68
2022/06/24 00:41:21;;;;;;;10.02;3.50;;;;;;;;;;5035120;28;20107;-68
2022/06/24 00:43:49;;;;;;;11.23;4.10;;;;;;;;;;5041882;28;20193;-68
2022/06/24 00:46:23;;;;;;;16.00;4.85;;;;;;;;;;5047230;28;20501;-67
2022/06/24 00:48:49;;;;;;;15.75;4.40;;;;;;;;;;5049076;28;20493;-68
2022/06/24 00:51:15;;;;;;;4.40;1.75;;;;;;;;;;5045900;28;20036;-67
2022/06/24 00:53:41;;;;;;;6.75;3.65;;;;;;;;;;5038671;28;20017;-67
2022/06/24 00:56:08;;;;;;;10.82;4.22;;;;;;;;;;5033221;28;20025;-67
2022/06/24 00:58:33;;;;;;;8.60;3.72;;;;;;;;;;5024439;28;20047;-67
2022/06/24 01:01:00;;;;;;;10.45;3.15;;;;;;;;;;5041044;28;20046;-68
2022/06/24 01:03:34;;;;;;;10.80;3.22;;;;;;;;;;5045181;28;20027;-68
2022/06/24 01:05:59;;;;;;;11.60;5.78;;;;;;;;;;5040768;28;20082;-68
2022/06/24 01:08:25;;;;;;;12.45;3.80;;;;;;;;;;5048174;28;20017;-67
2022/06/24 01:10:50;;;;;;;16.37;4.97;;;;;;;;;;5048667;28;20029;-68
2022/06/24 01:13:15;;;;;;;14.60;4.13;;;;;;;;;;5046566;28;20070;-68
2022/06/24 01:15:40;;;;;;;11.87;3.57;;;;;;;;;;5049002;28;20275;-67
2022/06/24 01:18:05;;;;;;;6.53;3.30;;;;;;;;;;5036410;28;20025;-68
2022/06/24 01:20:31;;;;;;;10.73;3.25;;;;;;;;;;5041272;28;20111;-68
2022/06/24 01:22:56;;;;;;;8.65;3.55;;;;;;;;;;5037051;28;20024;-68
2022/06/24 01:25:21;;;;;;;15.90;4.10;;;;;;;;;;5046782;28;20060;-68
2022/06/24 01:27:46;;;;;;;11.10;4.13;;;;;;;;;;5045317;28;20274;-67
2022/06/24 01:30:11;;;;;;;15.93;4.10;;;;;;;;;;5047163;28;20017;-67
2022/06/24 01:32:37;;;;;;;9.43;4.65;;;;;;;;;;5048251;28;20274;-67
2022/06/24 01:35:02;;;;;;;10.38;3.60;;;;;;;;;;5042500;28;20437;-67
2022/06/24 01:37:28;;;;;;;18.70;4.97;;;;;;;;;;5042986;28;20017;-67
2022/06/24 01:39:53;;;;;;;11.93;3.93;;;;;;;;;;5044491;28;20025;-68
2022/06/24 01:42:18;;;;;;;11.53;3.60;;;;;;;;;;5048693;28;20283;-68
2022/06/24 01:44:43;;;;;;;10.90;4.00;;;;;;;;;;5035725;28;20279;-68
2022/06/24 01:47:08;;;;;;;11.27;4.25;;;;;;;;;;5036524;28;20017;-67
2022/06/24 01:49:34;;;;;;;9.03;3.40;;;;;;;;;;5038164;28;20412;-67
2022/06/24 01:51:59;;;;;;;12.48;3.97;;;;;;;;;;5047867;28;20327;-67
2022/06/24 01:54:24;;;;;;;5.13;1.88;;;;;;;;;;5043462;28;20020;-68
2022/06/24 01:56:50;;;;;;;13.15;3.35;;;;;;;;;;5047593;28;20021;-68
2022/06/24 01:59:15;;;;;;;14.87;4.43;;;;;;;;;;5045682;28;20068;-68
2022/06/24 02:01:41;;;;;;;7.88;3.47;;;;;;;;;;5037417;28;20021;-68
2022/06/24 02:04:06;;;;;;;13.60;4.32;;;;;;;;;;5042745;28;20021;-68
2022/06/24 02:06:31;;;;;;;9.70;4.40;;;;;;;;;;5047880;28;20017;-68
2022/06/24 02:08:57;;;;;;;20.73;5.27;;;;;;;;;;5047463;28;20494;-67
2022/06/24 02:14:07;;;;;;;9.68;4.13;;;;;;;;;;5037356;28;20035;-68
2022/06/24 02:16:33;;;;;;;13.18;3.95;;;;;;;;;;5034808;28;20363;-67
2022/06/24 02:18:58;;;;;;;10.15;4.03;;;;;;;;;;5047042;28;20027;-67
2022/06/24 02:21:24;;;;;;;14.90;4.80;;;;;;;;;;5039316;28;20031;-67
2022/06/24 02:23:50;;;;;;;13.45;5.22;;;;;;;;;;5042983;28;20023;-68
2022/06/24 02:26:15;;;;;;;12.18;4.22;;;;;;;;;;5040147;28;20029;-67
2022/06/24 02:28:40;;;;;;;11.03;4.07;;;;;;;;;;5035224;28;20017;-68
2022/06/24 02:31:06;;;;;;;16.80;5.30;;;;;;;;;;5034602;28;20323;-68
2022/06/24 02:33:31;;;;;;;13.85;4.00;;;;;;;;;;5033970;28;20033;-68
2022/06/24 02:35:56;;;;;;;20.70;4.57;;;;;;;;;;5047513;28;20017;-68
2022/06/24 02:38:21;;;;;;;15.27;5.60;;;;;;;;;;5045301;28;20036;-68
2022/06/24 02:40:50;;;;;;;14.50;5.60;;;;;;;;;;5047090;28;20718;-67
2022/06/24 02:43:19;;;;;;;15.70;6.68;;;;;;;;;;5040960;28;20021;-67
2022/06/24 02:45:45;;;;;;;12.88;4.70;;;;;;;;;;5034973;28;20013;-69
2022/06/24 02:48:11;;;;;;;15.40;5.40;;;;;;;;;;5038370;28;20082;-68
2022/06/24 02:50:40;;;;;;;16.08;5.70;;;;;;;;;;5042072;28;20029;-68
2022/06/24 02:53:05;;;;;;;18.45;6.25;;;;;;;;;;5041498;28;20029;-68
2022/06/24 02:55:30;;;;;;;10.57;5.45;;;;;;;;;;5047829;28;20028;-68
2022/06/24 02:57:55;;;;;;;10.93;5.50;;;;;;;;;;5046778;28;20063;-68
2022/06/24 03:00:21;;;;;;;12.57;5.57;;;;;;;;;;5040941;28;20481;-67
2022/06/24 03:02:46;;;;;;;11.50;5.93;;;;;;;;;;5041904;28;20033;-67
2022/06/24 03:05:11;;;;;;;11.40;5.17;;;;;;;;;;5049065;28;20029;-67
2022/06/24 03:07:36;;;;;;;11.48;5.35;;;;;;;;;;5044206;28;20029;-67
2022/06/24 03:10:02;;;;;;;10.17;5.63;;;;;;;;;;5046184;28;20322;-67
2022/06/24 03:12:27;;;;;;;17.15;5.47;;;;;;;;;;5041676;28;20139;-68
2022/06/24 03:14:52;;;;;;;15.00;5.47;;;;;;;;;;5045798;28;20385;-67
2022/06/24 03:17:17;;;;;;;10.53;5.03;;;;;;;;;;5036023;28;20287;-67
2022/06/24 03:19:42;;;;;;;10.77;5.20;;;;;;;;;;5042131;28;20044;-67
2022/06/24 03:22:08;;;;;;;10.30;5.10;;;;;;;;;;5038661;28;20025;-67
2022/06/24 03:24:33;;;;;;;8.17;5.40;;;;;;;;;;5047605;28;20473;-67
2022/06/24 03:26:58;;;;;;;11.93;4.93;;;;;;;;;;5043424;28;20032;-67
2022/06/24 03:29:23;;;;;;;9.00;4.93;;;;;;;;;;5043980;28;20532;-67
2022/06/24 03:31:48;;;;;;;8.60;5.27;;;;;;;;;;5039304;28;20021;-67
2022/06/24 03:34:13;;;;;;;12.77;6.10;;;;;;;;;;5042517;28;20039;-67
2022/06/24 03:36:38;;;;;;;8.73;4.47;;;;;;;;;;5044291;28;20032;-68
2022/06/24 03:39:04;;;;;;;12.50;4.97;;;;;;;;;;5047235;28;20601;-68
2022/06/24 03:41:29;;;;;;;11.33;4.43;;;;;;;;;;5048943;28;20029;-68
2022/06/24 03:43:54;;;;;;;9.95;4.93;;;;;;;;;;5045534;28;20659;-68
2022/06/24 03:46:19;;;;;;;8.47;4.50;;;;;;;;;;5046878;28;20018;-67
2022/06/24 03:48:44;;;;;;;11.37;4.80;;;;;;;;;;5045982;28;20025;-67
2022/06/24 03:51:09;;;;;;;12.10;5.40;;;;;;;;;;5050571;28;20021;-67
2022/06/24 03:53:35;;;;;;;9.65;5.30;;;;;;;;;;5045627;28;20017;-67
2022/06/24 03:56:00;;;;;;;7.10;4.90;;;;;;;;;;5048821;28;20021;-67
2022/06/24 03:58:25;;;;;;;14.57;7.47;;;;;;;;;;5046742;28;20031;-67
2022/06/24 04:00:50;;;;;;;11.33;5.53;;;;;;;;;;5037308;28;20647;-67
2022/06/24 04:03:15;;;;;;;13.27;5.57;;;;;;;;;;5038608;28;20353;-67
2022/06/24 04:05:41;;;;;;;8.30;4.70;;;;;;;;;;5049691;28;20272;-68
2022/06/24 04:08:07;;;;;;;15.48;5.32;;;;;;;;;;5045774;28;20029;-68
2022/06/24 04:10:32;;;;;;;11.00;5.85;;;;;;;;;;5044336;28;20013;-68
2022/06/24 04:12:57;;;;;;;7.97;5.63;;;;;;;;;;5044672;28;20147;-67
2022/06/24 04:15:22;;;;;;;11.57;5.80;;;;;;;;;;5039524;28;20494;-67
2022/06/24 04:17:48;;;;;;;9.05;6.60;;;;;;;;;;5047545;28;21151;-67
2022/06/24 04:20:14;;;;;;;8.55;6.15;;;;;;;;;;5042395;28;20162;-68
2022/06/24 04:22:40;;;;;;;11.02;5.65;;;;;;;;;;5035563;28;20059;-68
2022/06/24 04:25:05;;;;;;;12.32;6.03;;;;;;;;;;5043855;28;20075;-67
2022/06/24 04:27:31;;;;;;;19.75;7.45;;;;;;;;;;5043702;28;20021;-67
2022/06/24 04:30:03;;;;;;;14.68;6.55;;;;;;;;;;5040156;28;20402;-66
2022/06/24 04:32:29;;;;;;;22.13;6.78;;;;;;;;;;5043744;28;20028;-67
2022/06/24 04:34:54;;;;;;;17.67;6.60;;;;;;;;;;5045548;28;20021;-67
2022/06/24 04:37:19;;;;;;;14.57;6.50;;;;;;;;;;5048766;28;20021;-67
2022/06/24 04:39:44;;;;;;;15.33;6.23;;;;;;;;;;5050137;28;20535;-66
2022/06/24 04:42:09;;;;;;;13.23;5.68;;;;;;;;;;5043452;28;20555;-67
2022/06/24 04:44:35;;;;;;;21.15;5.68;;;;;;;;;;5045344;28;20101;-67
2022/06/24 04:47:00;;;;;;;15.77;5.63;;;;;;;;;;5033385;28;20084;-67
2022/06/24 04:49:25;;;;;;;11.63;4.15;;;;;;;;;;5035894;28;20300;-68
2022/06/24 04:51:50;;;;;;;13.05;5.22;;;;;;;;;;5040761;28;20485;-68
2022/06/24 04:54:15;;;;;;;6.30;4.53;;;;;;;;;;5049473;28;20047;-68
2022/06/24 04:56:41;;;;;;;10.33;4.00;;;;;;;;;;5047744;28;20227;-67
2022/06/24 04:59:06;;;;;;;16.77;3.87;;;;;;;;;;5035869;28;20337;-67
2022/06/24 05:01:31;;;;;;;11.77;4.10;;;;;;;;;;5044554;28;20635;-67
2022/06/24 05:03:58;;;;;;;8.47;4.23;;;;;;;;;;5045450;28;20020;-67
2022/06/24 05:06:24;;;;;;;18.73;5.72;;;;;;;;;;5047210;28;20274;-67
2022/06/24 05:08:49;;;;;;;12.75;4.07;;;;;;;;;;5038462;28;20022;-66
2022/06/24 05:11:14;;;;;;;13.60;3.97;;;;;;;;;;5034724;28;20160;-66
2022/06/24 05:13:39;;;;;;;10.02;3.47;;;;;;;;;;5037833;28;20025;-67
2022/06/24 05:16:04;;;;;;;12.57;4.13;;;;;;;;;;5047176;28;20021;-67
2022/06/24 05:18:30;;;;;;;12.57;3.33;;;;;;;;;;5044205;28;20306;-67
2022/06/24 05:20:55;;;;;;;7.60;2.80;;;;;;;;;;5040207;28;20745;-67
2022/06/24 05:23:20;;;;;;;8.30;3.23;;;;;;;;;;5045030;28;20032;-67
2022/06/24 05:25:45;;;;;;;8.70;2.40;;;;;;;;;;5047750;28;20457;-67
2022/06/24 05:28:10;;;;;;;11.70;2.78;;;;;;;;;;5040124;28;20275;-66
2022/06/24 05:30:36;;;;;;;10.53;3.30;;;;;;;;;;5041986;28;20009;-67
2022/06/24 05:33:01;;;;;;;12.75;3.63;;;;;;;;;;5041666;28;20268;-67
2022/06/24 05:35:27;;;;;;;18.27;3.50;;;;;;;;;;5045335;28;20119;-67
2022/06/24 05:37:52;;;;;;;12.30;3.53;;;;;;;;;;5044207;28;21018;-66
2022/06/24 05:40:17;;;;;;;9.37;4.10;;;;;;;;;;5047411;28;20275;-66
2022/06/24 05:42:42;;;;;;;9.30;3.47;;;;;;;;;;5044261;28;20310;-66
2022/06/24 05:45:08;;;;;;;12.73;3.00;;;;;;;;;;5039997;28;20405;-67
2022/06/24 05:47:33;;;;;;;5.88;3.67;;;;;;;;;;5041540;28;20104;-67
2022/06/24 05:49:59;;;;;;;7.00;2.70;;;;;;;;;;5028994;28;20041;-66
2022/06/24 05:55:08;;;;;;;11.52;2.47;;;;;;;;;;5039716;28;20079;-67
2022/06/24 05:57:33;;;;;;;9.20;3.50;;;;;;;;;;5044783;28;20029;-68
2022/06/24 05:59:58;;;;;;;9.80;2.80;;;;;;;;;;5036270;28;20030;-67
2022/06/24 06:02:23;;;;;;;9.13;2.63;;;;;;;;;;5041551;28;20652;-67
2022/06/24 06:04:49;;;;;;;12.00;3.08;;;;;;;;;;5041555;28;20287;-67
2022/06/24 06:07:14;;;;;;;6.28;2.63;;;;;;;;;;5044458;28;20082;-67
2022/06/24 06:09:39;;;;;;;7.03;2.63;;;;;;;;;;5041506;28;20473;-66
2022/06/24 06:12:05;;;;;;;10.43;3.05;;;;;;;;;;5045804;28;20013;-67
2022/06/24 06:14:30;;;;;;;7.90;2.67;;;;;;;;;;5039274;28;20100;-67
2022/06/24 06:16:55;;;;;;;5.53;2.40;;;;;;;;;;5038383;28;20102;-67
2022/06/24 06:19:20;;;;;;;6.57;2.67;;;;;;;;;;5040831;28;20022;-67
2022/06/24 06:21:45;;;;;;;2.13;1.27;;;;;;;;;;5029731;28;20115;-66
2022/06/24 06:24:11;;;;;;;8.35;2.50;;;;;;;;;;5038639;28;20032;-67
2022/06/24 06:26:36;;;;;;;7.27;2.50;;;;;;;;;;5042535;28;20017;-67
2022/06/24 06:29:02;;;;;;;5.67;2.20;;;;;;;;;;5038142;28;20337;-67
2022/06/24 06:31:27;;;;;;;8.05;2.63;;;;;;;;;;5039009;28;20013;-67
2022/06/24 06:33:52;;;;;;;13.13;2.92;;;;;;;;;;5043904;28;20036;-66
2022/06/24 06:36:17;;;;;;;12.70;2.63;;;;;;;;;;5043432;28;20101;-67
2022/06/24 06:38:43;;;;;;;6.13;2.80;;;;;;;;;;5046878;28;20021;-67
2022/06/24 06:41:08;;;;;;;7.10;2.20;;;;;;;;;;5051242;28;20067;-67
2022/06/24 06:43:33;;;;;;;6.00;2.28;;;;;;;;;;5046989;28;20013;-67
2022/06/24 06:45:59;;;;;;;6.90;2.57;;;;;;;;;;5041465;28;20055;-67
2022/06/24 06:48:24;;;;;;;5.82;2.28;;;;;;;;;;5044005;28;20355;-67
2022/06/24 06:50:53;;;;;;;14.82;3.17;;;;;;;;;;5051392;28;20520;-67
2022/06/24 06:53:18;;;;;;;8.35;2.83;;;;;;;;;;5045915;28;20384;-66
2022/06/24 06:55:43;;;;;;;14.07;2.93;;;;;;;;;;5041200;28;20026;-66
2022/06/24 06:58:08;;;;;;;13.77;2.87;;;;;;;;;;5041565;28;20389;-66
2022/06/24 07:00:34;;;;;;;7.67;2.20;;;;;;;;;;5084675;23;20511;-87
2022/06/24 07:03:01;;;;;;;7.55;2.50;;;;;;;;;;5081978;28;20020;-88
2022/06/24 07:05:38;;;;;;;8.23;3.28;;;;;;;;;;5080850;28;20051;-87
2022/06/24 07:08:04;;;;;;;16.58;3.00;;;;;;;;;;5096465;28;20082;-89
2022/06/24 07:10:29;;;;;;;8.18;2.72;;;;;;;;;;5073256;28;20028;-89
2022/06/24 07:12:57;;;;;;;8.32;2.50;;;;;;;;;;5072780;28;20077;-88
2022/06/24 07:15:22;;;;;;;11.38;2.67;;;;;;;;;;5058490;28;20031;-89
2022/06/24 07:17:48;;;;;;;10.73;2.85;;;;;;;;;;5063603;28;20033;-89
2022/06/24 07:20:13;;;;;;;12.80;2.83;;;;;;;;;;5089075;28;20273;-89
2022/06/24 07:22:39;;;;;;;9.55;3.42;;;;;;;;;;5076520;28;20063;-90
2022/06/24 07:25:05;;;;;;;10.77;2.72;;;;;;;;;;5083810;28;20012;-89
2022/06/24 07:27:30;;;;;;;9.13;2.33;;;;;;;;;;5065825;28;20024;-88
2022/06/24 07:29:56;;;;;;;8.80;2.92;;;;;;;;;;5065921;28;20028;-87
2022/06/24 07:32:21;;;;;;;17.70;3.15;;;;;;;;;;5049921;28;20027;-88
2022/06/24 07:34:52;;;;;;;7.88;2.38;;;;;;;;;;5063653;28;20031;-90
2022/06/24 07:37:20;;;;;;;9.80;3.08;;;;;;;;;;5058972;28;20032;-87
2022/06/24 07:39:45;;;;;;;9.90;2.72;;;;;;;;;;5053699;28;20476;-87
2022/06/24 07:42:11;;;;;;;12.02;3.15;;;;;;;;;;5051832;28;20049;-88
2022/06/24 07:44:40;;;;;;;8.05;2.53;;;;;;;;;;5075399;28;20023;-88
2022/06/24 07:47:05;;;;;;;8.82;2.35;;;;;;;;;;5044497;28;20084;-88
2022/06/24 07:49:31;;;;;;;9.27;2.78;;;;;;;;;;5075247;28;20043;-87
2022/06/24 07:51:56;;;;;;;13.05;3.95;;;;;;;;;;5069917;28;20042;-87
2022/06/24 07:54:22;;;;;;;10.77;3.05;;;;;;;;;;5062905;28;20062;-87
2022/06/24 07:56:57;;;;;;;13.70;3.65;;;;;;;;;;5054763;28;20154;-87
2022/06/24 07:59:32;;;;;;;12.80;3.17;;;;;;;;;;5053113;28;20036;-90
2022/06/24 08:01:59;;;;;;;9.38;2.72;;;;;;;;;;5053176;28;20092;-89
2022/06/24 08:04:25;;;;;;;6.82;2.50;;;;;;;;;;5043599;28;20535;-87
2022/06/24 08:06:50;;;;;;;7.88;2.72;;;;;;;;;;5051660;28;20039;-86
2022/06/24 08:09:17;;;;;;;8.10;2.70;;;;;;;;;;5048930;28;20013;-87
2022/06/24 08:11:42;;;;;;;9.63;2.72;;;;;;;;;;5060725;28;20474;-87
2022/06/24 08:14:08;;;;;;;8.13;2.30;;;;;;;;;;5045906;28;20163;-87
2022/06/24 08:16:33;;;;;;;5.85;2.15;;;;;;;;;;5063848;28;20027;-87
2022/06/24 08:18:58;;;;;;;11.55;3.22;;;;;;;;;;5048958;28;20104;-88
2022/06/24 08:21:24;;;;;;;8.82;3.90;;;;;;;;;;5044781;28;20469;-88
2022/06/24 08:23:49;;;;;;;9.20;4.53;;;;;;;;;;5064859;28;20167;-89
2022/06/24 08:26:23;;;;;;;6.68;3.17;;;;;;;;;;5063126;28;20024;-89
2022/06/24 08:28:49;;;;;;;8.50;3.83;;;;;;;;;;5049939;28;20024;-89
2022/06/24 08:31:14;;;;;;;9.52;4.45;;;;;;;;;;5056480;28;20025;-89
2022/06/24 08:33:39;;;;;;;6.55;4.25;;;;;;;;;;5044134;28;20572;-89
2022/06/24 08:36:31;;;;;;;16.13;5.03;;;;;;;;;;5050162;28;20551;-89
2022/06/24 08:46:25;;;;;;;;;;;;;;;;;;;;;
2022/06/24 08:58:16;;;;;;;16.92;5.80;;;;;;;;;;4962844;22;20087;-76
2022/06/24 09:00:41;;;;;;;14.95;6.45;;;;;;;;;;5080989;28;20020;-76
2022/06/24 09:03:07;;;;;;;13.40;6.63;;;;;;;;;;5086239;28;20372;-69
2022/06/24 09:05:32;;;;;;;10.85;6.50;;;;;;;;;;5071082;28;20015;-69
2022/06/24 09:08:05;;;;;;;14.02;6.72;;;;;;;;;;5068163;28;20017;-69
2022/06/24 09:10:30;;;;;;;10.45;6.80;;;;;;;;;;5062485;28;20023;-69
2022/06/24 09:12:56;;;;;;;12.65;7.10;;;;;;;;;;5064158;28;20024;-68
2022/06/24 09:15:21;;;;;;;14.30;7.80;;;;;;;;;;5067643;28;20629;-67
2022/06/24 09:17:47;;;;;;;11.77;8.15;;;;;;;;;;5067794;28;20372;-67
2022/06/24 09:20:17;;;;;;;13.82;7.75;;;;;;;;;;5066821;28;20031;-67
2022/06/24 09:22:43;;;;;;;18.70;8.65;;;;;;;;;;5064901;28;20024;-68
2022/06/24 09:25:08;;;;;;;13.73;7.43;;;;;;;;;;5068127;28;20107;-67
2022/06/24 09:27:34;;;;;;;11.57;7.45;;;;;;;;;;5047442;28;20384;-68
2022/06/24 09:29:59;;;;;;;18.50;7.88;;;;;;;;;;5067760;28;20051;-67
2022/06/24 09:32:24;;;;;;;13.60;7.70;;;;;;;;;;5070616;28;20424;-68
2022/06/24 09:35:03;;;;;;;18.70;8.03;;;;;;;;;;5067875;28;20024;-67
2022/06/24 09:37:39;;;;;;;16.17;8.98;;;;;;;;;;5066780;28;20804;-67
2022/06/24 09:40:23;;;;;;;14.93;7.53;;;;;;;;;;5068394;28;20028;-67
2022/06/24 09:42:55;;;;;;;13.32;7.07;;;;;;;;;;5064987;28;20020;-68
2022/06/24 09:45:20;;;;;;;12.82;7.65;;;;;;;;;;5062472;28;20055;-69
2022/06/24 09:47:47;;;;;;;14.13;8.88;;;;;;;;;;5070001;28;20052;-67
2022/06/24 09:50:12;;;;;;;14.45;8.90;;;;;;;;;;5069114;28;20045;-67
2022/06/24 09:52:39;;;;;;;15.15;9.88;;;;;;;;;;5065379;28;20760;-67
2022/06/24 09:55:04;;;;;;;16.20;9.70;;;;;;;;;;5068875;28;20025;-67
2022/06/24 09:57:30;;;;;;;18.83;10.73;;;;;;;;;;5069116;28;20078;-68
2022/06/24 10:02:39;;;;;;;19.90;12.00;;;;;;;;;;5068072;28;20403;-67
2022/06/24 10:05:06;;;;;;;21.73;11.45;;;;;;;;;;5069723;28;20013;-67
2022/06/24 10:07:33;;;;;;;16.70;9.52;;;;;;;;;;5070317;28;20031;-68
2022/06/24 10:10:01;;;;;;;13.45;8.15;;;;;;;;;;5067753;28;20046;-68
2022/06/24 10:12:27;;;;;;;12.20;7.90;;;;;;;;;;5072801;28;20028;-69
2022/06/24 10:14:52;;;;;;;11.57;6.97;;;;;;;;;;5071637;28;20021;-68
2022/06/24 10:17:18;;;;;;;12.57;5.30;;;;;;;;;;5074136;28;20100;-67
2022/06/24 10:19:44;;;;;;;7.43;4.07;;;;;;;;;;5069904;28;20111;-68
2022/06/24 10:22:09;;;;;;;7.45;4.70;;;;;;;;;;5072222;28;20056;-68
2022/06/24 10:24:38;;;;;;;6.87;3.47;;;;;;;;;;5062939;28;20041;-68
2022/06/24 10:27:03;;;;;;;8.18;3.88;;;;;;;;;;5070930;28;20269;-68
2022/06/24 10:29:30;;;;;;;10.73;4.50;;;;;;;;;;5071489;28;20637;-68
2022/06/24 10:32:00;;;;;;;8.65;3.60;;;;;;;;;;5073658;28;20091;-68
2022/06/24 10:34:34;;;;;;;10.95;4.40;;;;;;;;;;5069106;28;20013;-68
2022/06/24 10:36:59;;;;;;;10.15;4.18;;;;;;;;;;5070419;28;20028;-68
2022/06/24 10:39:27;;;;;;;11.40;3.87;;;;;;;;;;5067083;28;20025;-68
2022/06/24 10:41:59;;;;;;;6.18;3.60;;;;;;;;;;5071036;28;20274;-68
2022/06/24 10:44:37;;;;;;;12.52;4.72;;;;;;;;;;5071997;28;20013;-68
2022/06/24 10:47:05;;;;;;;6.55;4.28;;;;;;;;;;5069245;28;20499;-67
2022/06/24 10:49:49;;;;;;;15.13;4.82;;;;;;;;;;5069629;28;20419;-68
2022/06/24 10:52:36;;;;;;;9.80;3.92;;;;;;;;;;5068431;28;20059;-68
2022/06/24 10:55:34;;;;;;;8.63;3.60;;;;;;;;;;5068576;28;20035;-67
2022/06/24 10:58:05;;;;;;;9.77;3.40;;;;;;;;;;5076615;28;20024;-67
2022/06/24 11:00:39;;;;;;;7.75;4.03;;;;;;;;;;5069546;28;20044;-67
2022/06/24 11:03:04;;;;;;;8.05;3.67;;;;;;;;;;5070150;28;20025;-68
2022/06/24 11:05:39;;;;;;;7.05;2.90;;;;;;;;;;5071179;28;20179;-67
2022/06/24 11:08:14;;;;;;;7.50;3.33;;;;;;;;;;5069116;28;20025;-68
2022/06/24 11:10:40;;;;;;;5.03;3.17;;;;;;;;;;5068639;28;20065;-67
2022/06/24 11:13:06;;;;;;;6.85;3.47;;;;;;;;;;5068777;28;20016;-67
2022/06/24 11:15:38;;;;;;;6.30;3.50;;;;;;;;;;5072553;28;20465;-67
2022/06/24 11:18:06;;;;;;;10.68;3.53;;;;;;;;;;5058014;28;20021;-67
2022/06/24 11:20:34;;;;;;;5.82;4.20;;;;;;;;;;5069973;28;20032;-67
2022/06/24 11:22:59;;;;;;;9.93;3.35;;;;;;;;;;5071985;28;20028;-67
2022/06/24 11:25:25;;;;;;;7.77;3.53;;;;;;;;;;5061184;28;20334;-67
2022/06/24 11:27:50;;;;;;;7.60;3.70;;;;;;;;;;5066512;28;20339;-67
2022/06/24 11:30:15;;;;;;;8.37;4.33;;;;;;;;;;5053385;28;20420;-67
2022/06/24 11:32:51;;;;;;;7.00;3.60;;;;;;;;;;5068785;28;20764;-67
2022/06/24 11:35:17;;;;;;;5.47;2.92;;;;;;;;;;5070550;28;20023;-67
2022/06/24 11:37:43;;;;;;;6.00;3.40;;;;;;;;;;5072682;28;20393;-68
2022/06/24 11:40:08;;;;;;;5.75;3.20;;;;;;;;;;5067853;28;20036;-68
2022/06/24 11:42:33;;;;;;;9.18;3.33;;;;;;;;;;5074302;28;20416;-69
2022/06/24 11:44:58;;;;;;;4.83;3.20;;;;;;;;;;5069241;28;20023;-69
2022/06/24 11:47:31;;;;;;;5.87;3.73;;;;;;;;;;5072667;28;20247;-69
2022/06/24 11:49:56;;;;;;;5.07;4.00;;;;;;;;;;5069943;28;20392;-69
2022/06/24 11:52:21;;;;;;;6.32;4.35;;;;;;;;;;5063616;28;20020;-69
2022/06/24 11:54:46;;;;;;;6.63;4.10;;;;;;;;;;5068351;28;20532;-68
2022/06/24 11:57:12;;;;;;;6.57;4.40;;;;;;;;;;5063485;28;20021;-68
2022/06/24 11:59:37;;;;;;;8.70;4.07;;;;;;;;;;5056052;28;20237;-68
2022/06/24 12:02:03;;;;;;;6.15;3.88;;;;;;;;;;5066988;28;20820;-69
2022/06/24 12:04:28;;;;;;;8.00;4.00;;;;;;;;;;5069324;28;20024;-69
2022/06/24 12:06:54;;;;;;;9.40;3.75;;;;;;;;;;5070107;28;20028;-69
2022/06/24 12:09:19;;;;;;;7.65;4.13;;;;;;;;;;5064273;28;20076;-69
2022/06/24 12:11:44;;;;;;;8.98;3.83;;;;;;;;;;5064838;28;20031;-68
2022/06/24 12:14:11;;;;;;;7.35;4.60;;;;;;;;;;5070972;28;20087;-68
2022/06/24 12:16:55;;;;;;;3.15;2.22;;;;;;;;;;5064223;28;20378;-68
2022/06/24 12:19:21;;;;;;;5.50;3.10;;;;;;;;;;5060668;28;20048;-68
2022/06/24 12:21:46;;;;;;;5.00;3.70;;;;;;;;;;5068729;28;20063;-68
2022/06/24 12:24:21;;;;;;;7.80;3.75;;;;;;;;;;5046496;28;20342;-68
2022/06/24 12:26:46;;;;;;;6.18;3.42;;;;;;;;;;5066178;28;20045;-68
2022/06/24 12:29:12;;;;;;;8.30;3.88;;;;;;;;;;5065777;28;20057;-68
2022/06/24 12:31:38;;;;;;;4.70;3.20;;;;;;;;;;5065916;28;20017;-68
2022/06/24 12:34:03;;;;;;;1.80;1.35;;;;;;;;;;5070405;28;20009;-68
2022/06/24 12:36:41;;;;;;;5.72;2.97;;;;;;;;;;5070103;28;20031;-68
2022/06/24 12:39:07;;;;;;;7.30;2.85;;;;;;;;;;5068256;28;20408;-68
2022/06/24 12:41:48;;;;;;;5.60;3.00;;;;;;;;;;5061134;28;20040;-68
2022/06/24 12:44:14;;;;;;;5.22;3.00;;;;;;;;;;5068309;28;20035;-68
2022/06/24 12:52:27;;;;;;;4.45;2.95;;;;;;;;;;5071093;28;20515;-68
2022/06/24 12:54:52;;;;;;;9.10;2.63;;;;;;;;;;5063966;28;20028;-68
2022/06/24 12:57:17;;;;;;;8.13;3.03;;;;;;;;;;5066322;28;20100;-68
2022/06/24 12:59:43;;;;;;;5.07;2.83;;;;;;;;;;5066729;28;20041;-68
2022/06/24 13:02:09;;;;;;;5.53;3.40;;;;;;;;;;5044567;28;20059;-68
2022/06/24 13:04:34;;;;;;;9.95;2.97;;;;;;;;;;5047360;28;20059;-68
2022/06/24 13:07:00;;;;;;;4.78;2.95;;;;;;;;;;5061589;28;21785;-68
2022/06/24 13:09:25;;;;;;;4.93;3.33;;;;;;;;;;5066229;28;20012;-68
2022/06/24 13:11:50;;;;;;;5.25;2.83;;;;;;;;;;5065366;28;20043;-68
2022/06/24 13:14:15;;;;;;;13.73;3.77;;;;;;;;;;5069575;28;20492;-68
2022/06/24 13:16:40;;;;;;;3.87;2.50;;;;;;;;;;5063715;28;20050;-68
2022/06/24 13:19:06;;;;;;;6.97;2.50;;;;;;;;;;5066057;28;20389;-68
2022/06/24 13:21:31;;;;;;;7.90;2.33;;;;;;;;;;5059496;28;20056;-68
2022/06/24 13:23:56;;;;;;;5.75;2.50;;;;;;;;;;5064630;28;20346;-68
2022/06/24 13:26:21;;;;;;;5.00;2.00;;;;;;;;;;5059418;28;20029;-69
2022/06/24 13:28:46;;;;;;;9.50;2.93;;;;;;;;;;5068394;28;20048;-68
2022/06/24 13:31:12;;;;;;;4.10;2.58;;;;;;;;;;5061502;28;20097;-68
2022/06/24 13:33:37;;;;;;;7.63;3.50;;;;;;;;;;5068776;28;20032;-68
2022/06/24 13:36:02;;;;;;;5.07;2.70;;;;;;;;;;5063049;28;20275;-69
2022/06/24 13:38:27;;;;;;;7.40;3.58;;;;;;;;;;5062761;28;20113;-69
2022/06/24 13:40:53;;;;;;;4.63;2.97;;;;;;;;;;5067981;28;20028;-68
2022/06/24 13:43:20;;;;;;;7.22;2.78;;;;;;;;;;5068685;28;20012;-69
2022/06/24 13:45:45;;;;;;;5.13;2.63;;;;;;;;;;5061397;28;20009;-69
2022/06/24 13:48:11;;;;;;;4.90;3.25;;;;;;;;;;5067301;28;20500;-69
2022/06/24 13:50:36;;;;;;;6.05;3.00;;;;;;;;;;5060273;28;20464;-68
2022/06/24 13:53:02;;;;;;;7.55;3.25;;;;;;;;;;5062608;28;20028;-68
2022/06/24 13:55:28;;;;;;;6.43;2.90;;;;;;;;;;5072659;28;20062;-68
2022/06/24 13:57:53;;;;;;;4.55;2.78;;;;;;;;;;5071498;28;20021;-68
2022/06/24 14:00:18;;;;;;;6.40;2.77;;;;;;;;;;5050713;28;20060;-69
2022/06/24 14:02:43;;;;;;;7.63;3.10;;;;;;;;;;5070307;28;20339;-68
2022/06/24 14:05:09;;;;;;;6.10;3.10;;;;;;;;;;5064362;28;20286;-69
2022/06/24 14:07:34;;;;;;;5.10;3.53;;;;;;;;;;5070483;28;20093;-69
2022/06/24 14:09:59;;;;;;;6.33;3.00;;;;;;;;;;5067566;28;20044;-68
2022/06/24 14:12:24;;;;;;;8.93;2.73;;;;;;;;;;5070329;28;20468;-68
2022/06/24 14:14:50;;;;;;;5.78;2.70;;;;;;;;;;5067239;28;20776;-69
2022/06/24 14:17:15;;;;;;;7.55;2.60;;;;;;;;;;5050727;28;20074;-70
2022/06/24 14:19:40;;;;;;;8.97;2.93;;;;;;;;;;5065744;28;20025;-69
2022/06/24 14:22:05;;;;;;;5.30;2.73;;;;;;;;;;5070063;28;20294;-69
2022/06/24 14:24:33;;;;;;;4.70;2.87;;;;;;;;;;5067396;28;20029;-69
2022/06/24 14:27:02;;;;;;;5.07;2.83;;;;;;;;;;5055651;28;20262;-70
2022/06/24 14:29:28;;;;;;;6.38;2.70;;;;;;;;;;5066179;28;20021;-70
2022/06/24 14:31:53;;;;;;;7.95;2.80;;;;;;;;;;5070015;28;20040;-69
2022/06/24 14:34:18;;;;;;;7.27;2.70;;;;;;;;;;5065597;28;20047;-69
2022/06/24 14:36:43;;;;;;;6.90;2.70;;;;;;;;;;5069764;28;20073;-69
2022/06/24 14:41:52;;;;;;;7.75;2.78;;;;;;;;;;5069740;28;20347;-69
2022/06/24 14:44:17;;;;;;;7.33;2.33;;;;;;;;;;5065460;28;20021;-70
2022/06/24 14:46:42;;;;;;;6.87;2.83;;;;;;;;;;5066746;28;20258;-70
2022/06/24 14:49:07;;;;;;;5.73;2.57;;;;;;;;;;5067452;28;20281;-69
2022/06/24 14:51:33;;;;;;;5.83;2.50;;;;;;;;;;5068055;28;20025;-70
2022/06/24 14:53:58;;;;;;;6.23;2.63;;;;;;;;;;5070934;28;20283;-69
2022/06/24 14:56:24;;;;;;;3.95;2.35;;;;;;;;;;5074790;28;20008;-70
2022/06/24 14:58:49;;;;;;;4.28;2.58;;;;;;;;;;5072909;28;20020;-69
2022/06/24 15:01:14;;;;;;;5.00;2.50;;;;;;;;;;5069020;28;20075;-70
2022/06/24 15:03:39;;;;;;;4.17;2.60;;;;;;;;;;5069725;28;20278;-70
2022/06/24 15:06:05;;;;;;;6.37;2.70;;;;;;;;;;5068591;28;20389;-69
2022/06/24 15:08:34;;;;;;;9.95;2.60;;;;;;;;;;5073112;28;20015;-70